Eastern Wv Regional Shepherd Field
KMRB : now visible

Airfield :











YOU CAN JOIN US ON...

 
LOGIN :

Register | Disclaimer

   EN    FR    IT 

 









Legend :    VFR   Marginal VFR   IFR   Intensive IFR   Very Intensive IFR
Visi :
Ceiling :
>= 8 km
>= 3000ft
5 to 8 km
1000 to 3000 ft
1500m to 5 km
500 to 1000 ft
800 to 1500m
200 to 500 ft
< 800m
< 200 ft
Symbols :   Thunderstorms  Fog  Heavy snow  Heavy precipitations  Wind > 20 kt







- Airport Elevation : 565 ft


KMRB - Eastern Wv Regional Shepherd Field

CURRENT METAR :
  • 200953Z 00000KT 10SM CLR 07/05 A3027 RMK AO2 SLP252 T00670050

EXPIRED METARs :
  • 200853Z 00000KT 10SM CLR 07/06 A3027 RMK AO2 SLP250 T00670056 56002
  • 200753Z 00000KT 10SM CLR 07/06 A3027 RMK AO2 SLP249 T00720061

TAF KMRB
Valid from the 20 at 06:00 until the 21 at 06:00 UTC


200525Z 2006/2106 00000KT P6SM SKC
FM202000 18004KT P6SM SKC
FM210500 00000KT P6SM SKC
No reported NOTAMs for that airfield.



MET'MAP, your aeronautical weather chart ! - Copyright ORBIFLY December 2007 - Disclaimer

ORBIFLY MET'MAP TEAM :

Programming & Development : Alexandra Zaïnal
Concept & Development : Baudouin d'Aumeries
Co-Development & Prog : Marc-Olivier Méhu
Technical & hardware support : Manuel Goepfert

Contact : metmap@orbifly.com




SOURCES & CREDITS :

   NOAA       Earth
Advisory